sensor_id;sensor_type;location;lat;lon;timestamp;temperature;humidity
69770;SHT30;57282;52.514;13.458;2022-08-21T00:00:21;21.87;74.82
69770;SHT30;57282;52.514;13.458;2022-08-21T00:02:52;21.85;74.65
69770;SHT30;57282;52.514;13.458;2022-08-21T00:05:20;21.86;74.91
69770;SHT30;57282;52.514;13.458;2022-08-21T00:07:50;21.85;74.89
69770;SHT30;57282;52.514;13.458;2022-08-21T00:10:18;21.85;75.00
69770;SHT30;57282;52.514;13.458;2022-08-21T00:12:46;21.82;74.81
69770;SHT30;57282;52.514;13.458;2022-08-21T00:15:16;21.85;75.02
69770;SHT30;57282;52.514;13.458;2022-08-21T00:17:47;21.83;74.90
69770;SHT30;57282;52.514;13.458;2022-08-21T00:20:15;21.77;74.94
69770;SHT30;57282;52.514;13.458;2022-08-21T00:22:42;21.76;75.18
69770;SHT30;57282;52.514;13.458;2022-08-21T00:25:13;21.76;75.16
69770;SHT30;57282;52.514;13.458;2022-08-21T00:27:41;21.76;75.60
69770;SHT30;57282;52.514;13.458;2022-08-21T00:30:10;21.70;75.65
69770;SHT30;57282;52.514;13.458;2022-08-21T00:32:40;21.72;75.90
69770;SHT30;57282;52.514;13.458;2022-08-21T00:35:09;21.67;76.01
69770;SHT30;57282;52.514;13.458;2022-08-21T00:37:37;21.69;76.10
69770;SHT30;57282;52.514;13.458;2022-08-21T00:40:07;21.67;76.06
69770;SHT30;57282;52.514;13.458;2022-08-21T00:42:38;21.66;76.05
69770;SHT30;57282;52.514;13.458;2022-08-21T00:45:06;21.67;75.73
69770;SHT30;57282;52.514;13.458;2022-08-21T00:47:33;21.67;75.34
69770;SHT30;57282;52.514;13.458;2022-08-21T00:50:00;21.65;75.46
69770;SHT30;57282;52.514;13.458;2022-08-21T00:52:30;21.63;75.21
69770;SHT30;57282;52.514;13.458;2022-08-21T00:55:00;21.63;74.94
69770;SHT30;57282;52.514;13.458;2022-08-21T00:57:30;21.56;74.94
69770;SHT30;57282;52.514;13.458;2022-08-21T01:00:08;21.53;75.33
69770;SHT30;57282;52.514;13.458;2022-08-21T01:02:38;21.58;75.21
69770;SHT30;57282;52.514;13.458;2022-08-21T01:05:05;21.53;75.57
69770;SHT30;57282;52.514;13.458;2022-08-21T01:07:33;21.60;75.57
69770;SHT30;57282;52.514;13.458;2022-08-21T01:10:01;21.58;75.74
69770;SHT30;57282;52.514;13.458;2022-08-21T01:12:28;21.52;75.68
69770;SHT30;57282;52.514;13.458;2022-08-21T01:14:55;21.53;75.79
69770;SHT30;57282;52.514;13.458;2022-08-21T01:17:24;21.49;75.19
69770;SHT30;57282;52.514;13.458;2022-08-21T01:19:53;21.42;75.56
69770;SHT30;57282;52.514;13.458;2022-08-21T01:22:25;21.45;75.44
69770;SHT30;57282;52.514;13.458;2022-08-21T01:24:51;21.43;75.61
69770;SHT30;57282;52.514;13.458;2022-08-21T01:27:18;21.42;75.28
69770;SHT30;57282;52.514;13.458;2022-08-21T01:29:48;21.37;74.77
69770;SHT30;57282;52.514;13.458;2022-08-21T01:32:20;21.37;73.71
69770;SHT30;57282;52.514;13.458;2022-08-21T01:34:50;21.38;73.54
69770;SHT30;57282;52.514;13.458;2022-08-21T01:37:20;21.41;73.12
69770;SHT30;57282;52.514;13.458;2022-08-21T01:39:49;21.35;73.14
69770;SHT30;57282;52.514;13.458;2022-08-21T01:42:16;21.35;73.64
69770;SHT30;57282;52.514;13.458;2022-08-21T01:44:43;21.35;73.54
69770;SHT30;57282;52.514;13.458;2022-08-21T01:47:12;21.37;73.64
69770;SHT30;57282;52.514;13.458;2022-08-21T01:49:41;21.37;73.72
69770;SHT30;57282;52.514;13.458;2022-08-21T01:52:09;21.32;73.65
69770;SHT30;57282;52.514;13.458;2022-08-21T01:54:37;21.34;73.81
69770;SHT30;57282;52.514;13.458;2022-08-21T01:57:07;21.31;73.88
69770;SHT30;57282;52.514;13.458;2022-08-21T01:59:36;21.24;74.50
69770;SHT30;57282;52.514;13.458;2022-08-21T02:02:03;21.25;73.90
69770;SHT30;57282;52.514;13.458;2022-08-21T02:04:30;21.22;73.88
69770;SHT30;57282;52.514;13.458;2022-08-21T02:06:57;21.17;73.95
69770;SHT30;57282;52.514;13.458;2022-08-21T02:09:25;21.11;73.48
69770;SHT30;57282;52.514;13.458;2022-08-21T02:11:52;21.04;73.99
69770;SHT30;57282;52.514;13.458;2022-08-21T02:14:21;21.01;73.97
69770;SHT30;57282;52.514;13.458;2022-08-21T02:16:47;21.05;73.39
69770;SHT30;57282;52.514;13.458;2022-08-21T02:19:15;21.02;73.71
69770;SHT30;57282;52.514;13.458;2022-08-21T02:21:43;21.04;73.84
69770;SHT30;57282;52.514;13.458;2022-08-21T02:24:11;21.02;73.62
69770;SHT30;57282;52.514;13.458;2022-08-21T02:26:38;20.91;73.65
69770;SHT30;57282;52.514;13.458;2022-08-21T02:29:05;20.85;73.61
69770;SHT30;57282;52.514;13.458;2022-08-21T02:31:33;20.88;74.09
69770;SHT30;57282;52.514;13.458;2022-08-21T02:34:00;20.80;73.63
69770;SHT30;57282;52.514;13.458;2022-08-21T02:36:27;20.79;73.91
69770;SHT30;57282;52.514;13.458;2022-08-21T02:38:54;20.84;73.64
69770;SHT30;57282;52.514;13.458;2022-08-21T02:41:21;20.79;73.46
69770;SHT30;57282;52.514;13.458;2022-08-21T02:43:49;20.76;73.76
69770;SHT30;57282;52.514;13.458;2022-08-21T02:46:18;20.74;73.56
69770;SHT30;57282;52.514;13.458;2022-08-21T02:48:49;20.71;72.57
69770;SHT30;57282;52.514;13.458;2022-08-21T02:51:18;20.67;73.14
69770;SHT30;57282;52.514;13.458;2022-08-21T02:53:47;20.64;73.04
69770;SHT30;57282;52.514;13.458;2022-08-21T02:56:19;20.60;72.68
69770;SHT30;57282;52.514;13.458;2022-08-21T02:58:48;20.56;72.77
69770;SHT30;57282;52.514;13.458;2022-08-21T03:01:17;20.47;72.62
69770;SHT30;57282;52.514;13.458;2022-08-21T03:03:46;20.39;72.43
69770;SHT30;57282;52.514;13.458;2022-08-21T03:06:18;20.37;72.71
69770;SHT30;57282;52.514;13.458;2022-08-21T03:08:46;20.44;72.92
69770;SHT30;57282;52.514;13.458;2022-08-21T03:11:15;20.44;72.46
69770;SHT30;57282;52.514;13.458;2022-08-21T03:13:42;20.46;72.43
69770;SHT30;57282;52.514;13.458;2022-08-21T03:16:09;20.40;72.05
69770;SHT30;57282;52.514;13.458;2022-08-21T03:18:37;20.40;72.18
69770;SHT30;57282;52.514;13.458;2022-08-21T03:21:05;20.39;72.25
69770;SHT30;57282;52.514;13.458;2022-08-21T03:23:32;20.39;71.89
69770;SHT30;57282;52.514;13.458;2022-08-21T03:25:59;20.36;71.84
69770;SHT30;57282;52.514;13.458;2022-08-21T03:28:26;20.42;71.76
69770;SHT30;57282;52.514;13.458;2022-08-21T03:30:53;20.37;71.18
69770;SHT30;57282;52.514;13.458;2022-08-21T03:33:20;20.36;71.62
69770;SHT30;57282;52.514;13.458;2022-08-21T03:35:54;20.22;71.57
69770;SHT30;57282;52.514;13.458;2022-08-21T03:38:28;20.28;71.43
69770;SHT30;57282;52.514;13.458;2022-08-21T03:40:56;20.25;71.14
69770;SHT30;57282;52.514;13.458;2022-08-21T03:43:23;20.19;71.25
69770;SHT30;57282;52.514;13.458;2022-08-21T03:45:50;20.26;71.37
69770;SHT30;57282;52.514;13.458;2022-08-21T03:48:17;20.23;71.21
69770;SHT30;57282;52.514;13.458;2022-08-21T03:50:45;20.26;71.35
69770;SHT30;57282;52.514;13.458;2022-08-21T03:53:15;20.19;71.14
69770;SHT30;57282;52.514;13.458;2022-08-21T03:55:44;20.13;71.51
69770;SHT30;57282;52.514;13.458;2022-08-21T03:58:11;20.12;71.37
69770;SHT30;57282;52.514;13.458;2022-08-21T04:00:38;20.05;71.62
69770;SHT30;57282;52.514;13.458;2022-08-21T04:03:04;20.06;71.58
69770;SHT30;57282;52.514;13.458;2022-08-21T04:05:33;20.16;71.51
69770;SHT30;57282;52.514;13.458;2022-08-21T04:08:02;20.02;71.66
69770;SHT30;57282;52.514;13.458;2022-08-21T04:10:33;20.12;71.52
69770;SHT30;57282;52.514;13.458;2022-08-21T04:13:03;20.09;71.55
69770;SHT30;57282;52.514;13.458;2022-08-21T04:15:31;19.99;71.44
69770;SHT30;57282;52.514;13.458;2022-08-21T04:17:58;20.02;71.67
69770;SHT30;57282;52.514;13.458;2022-08-21T04:20:25;20.01;71.49
69770;SHT30;57282;52.514;13.458;2022-08-21T04:22:53;20.02;71.27
69770;SHT30;57282;52.514;13.458;2022-08-21T04:25:22;19.98;71.19
69770;SHT30;57282;52.514;13.458;2022-08-21T04:27:49;19.99;71.25
69770;SHT30;57282;52.514;13.458;2022-08-21T04:30:17;19.96;71.08
69770;SHT30;57282;52.514;13.458;2022-08-21T04:32:45;19.94;71.17
69770;SHT30;57282;52.514;13.458;2022-08-21T04:35:15;19.95;70.81
69770;SHT30;57282;52.514;13.458;2022-08-21T04:37:43;19.85;70.90
69770;SHT30;57282;52.514;13.458;2022-08-21T04:40:12;19.81;71.08
69770;SHT30;57282;52.514;13.458;2022-08-21T04:42:43;19.79;70.84
69770;SHT30;57282;52.514;13.458;2022-08-21T04:45:22;19.77;71.22
69770;SHT30;57282;52.514;13.458;2022-08-21T04:47:51;19.84;70.63
69770;SHT30;57282;52.514;13.458;2022-08-21T04:50:20;19.81;70.95
69770;SHT30;57282;52.514;13.458;2022-08-21T04:52:50;19.82;70.73
69770;SHT30;57282;52.514;13.458;2022-08-21T04:55:18;19.77;70.55
69770;SHT30;57282;52.514;13.458;2022-08-21T04:57:46;19.79;70.78
69770;SHT30;57282;52.514;13.458;2022-08-21T05:00:15;19.85;70.74
69770;SHT30;57282;52.514;13.458;2022-08-21T05:02:45;19.79;70.68
69770;SHT30;57282;52.514;13.458;2022-08-21T05:05:13;19.81;70.62
69770;SHT30;57282;52.514;13.458;2022-08-21T05:07:42;19.89;70.38
69770;SHT30;57282;52.514;13.458;2022-08-21T05:10:11;19.77;70.28
69770;SHT30;57282;52.514;13.458;2022-08-21T05:12:40;19.86;70.24
69770;SHT30;57282;52.514;13.458;2022-08-21T05:15:09;19.77;70.33
69770;SHT30;57282;52.514;13.458;2022-08-21T05:17:38;19.79;70.47
69770;SHT30;57282;52.514;13.458;2022-08-21T05:20:07;19.73;70.77
69770;SHT30;57282;52.514;13.458;2022-08-21T05:22:34;19.75;70.45
69770;SHT30;57282;52.514;13.458;2022-08-21T05:25:01;19.74;70.51
69770;SHT30;57282;52.514;13.458;2022-08-21T05:27:27;19.71;70.45
69770;SHT30;57282;52.514;13.458;2022-08-21T05:29:54;19.73;70.42
69770;SHT30;57282;52.514;13.458;2022-08-21T05:32:21;19.63;70.92
69770;SHT30;57282;52.514;13.458;2022-08-21T05:34:48;19.67;70.73
69770;SHT30;57282;52.514;13.458;2022-08-21T05:37:16;19.71;71.15
69770;SHT30;57282;52.514;13.458;2022-08-21T05:39:43;19.75;70.67
69770;SHT30;57282;52.514;13.458;2022-08-21T05:42:10;19.77;70.64
69770;SHT30;57282;52.514;13.458;2022-08-21T05:44:36;19.84;70.63
69770;SHT30;57282;52.514;13.458;2022-08-21T05:47:05;19.82;70.57
69770;SHT30;57282;52.514;13.458;2022-08-21T05:49:33;19.84;70.79
69770;SHT30;57282;52.514;13.458;2022-08-21T05:52:01;19.84;70.59
69770;SHT30;57282;52.514;13.458;2022-08-21T05:54:31;19.84;70.70
69770;SHT30;57282;52.514;13.458;2022-08-21T05:56:57;19.88;70.59
69770;SHT30;57282;52.514;13.458;2022-08-21T05:59:24;19.85;70.68
69770;SHT30;57282;52.514;13.458;2022-08-21T06:01:52;19.86;70.52
69770;SHT30;57282;52.514;13.458;2022-08-21T06:04:19;19.88;70.57
69770;SHT30;57282;52.514;13.458;2022-08-21T06:06:46;19.94;70.26
69770;SHT30;57282;52.514;13.458;2022-08-21T06:09:13;19.96;69.71
69770;SHT30;57282;52.514;13.458;2022-08-21T06:11:41;19.96;69.86
69770;SHT30;57282;52.514;13.458;2022-08-21T06:14:08;19.96;70.05
69770;SHT30;57282;52.514;13.458;2022-08-21T06:16:34;19.98;69.64
69770;SHT30;57282;52.514;13.458;2022-08-21T06:19:01;20.02;69.84
69770;SHT30;57282;52.514;13.458;2022-08-21T06:21:28;20.05;69.21
69770;SHT30;57282;52.514;13.458;2022-08-21T06:23:55;20.06;69.45
69770;SHT30;57282;52.514;13.458;2022-08-21T06:26:21;19.98;69.08
69770;SHT30;57282;52.514;13.458;2022-08-21T06:28:50;20.01;69.35
69770;SHT30;57282;52.514;13.458;2022-08-21T06:31:19;19.96;68.35
69770;SHT30;57282;52.514;13.458;2022-08-21T06:33:47;20.02;69.05
69770;SHT30;57282;52.514;13.458;2022-08-21T06:36:16;20.04;68.92
69770;SHT30;57282;52.514;13.458;2022-08-21T06:38:43;20.05;68.78
69770;SHT30;57282;52.514;13.458;2022-08-21T06:41:10;20.11;69.10
69770;SHT30;57282;52.514;13.458;2022-08-21T06:43:36;20.09;68.45
69770;SHT30;57282;52.514;13.458;2022-08-21T06:46:05;20.13;68.41
69770;SHT30;57282;52.514;13.458;2022-08-21T06:48:32;20.11;68.72
69770;SHT30;57282;52.514;13.458;2022-08-21T06:50:59;20.13;68.82
69770;SHT30;57282;52.514;13.458;2022-08-21T06:53:26;20.16;68.34
69770;SHT30;57282;52.514;13.458;2022-08-21T06:55:53;20.18;68.65
69770;SHT30;57282;52.514;13.458;2022-08-21T06:58:20;20.21;68.37
69770;SHT30;57282;52.514;13.458;2022-08-21T07:00:50;20.23;68.23
69770;SHT30;57282;52.514;13.458;2022-08-21T07:03:20;20.22;68.09
69770;SHT30;57282;52.514;13.458;2022-08-21T07:05:49;20.28;67.73
69770;SHT30;57282;52.514;13.458;2022-08-21T07:08:16;20.28;67.59
69770;SHT30;57282;52.514;13.458;2022-08-21T07:10:43;20.33;67.64
69770;SHT30;57282;52.514;13.458;2022-08-21T07:13:10;20.19;67.42
69770;SHT30;57282;52.514;13.458;2022-08-21T07:15:37;20.28;67.04
69770;SHT30;57282;52.514;13.458;2022-08-21T07:18:05;20.30;66.57
69770;SHT30;57282;52.514;13.458;2022-08-21T07:20:33;20.34;66.76
69770;SHT30;57282;52.514;13.458;2022-08-21T07:23:02;20.37;67.21
69770;SHT30;57282;52.514;13.458;2022-08-21T07:25:31;20.37;66.38
69770;SHT30;57282;52.514;13.458;2022-08-21T07:27:58;20.40;65.91
69770;SHT30;57282;52.514;13.458;2022-08-21T07:30:25;20.40;65.42
69770;SHT30;57282;52.514;13.458;2022-08-21T07:32:53;20.43;65.04
69770;SHT30;57282;52.514;13.458;2022-08-21T07:35:20;20.40;64.33
69770;SHT30;57282;52.514;13.458;2022-08-21T07:37:49;20.46;64.17
69770;SHT30;57282;52.514;13.458;2022-08-21T07:40:17;20.49;64.28
69770;SHT30;57282;52.514;13.458;2022-08-21T07:42:47;20.52;63.34
69770;SHT30;57282;52.514;13.458;2022-08-21T07:45:18;20.60;63.31
69770;SHT30;57282;52.514;13.458;2022-08-21T07:47:47;20.60;62.52
69770;SHT30;57282;52.514;13.458;2022-08-21T07:50:14;20.63;62.44
69770;SHT30;57282;52.514;13.458;2022-08-21T07:52:42;20.71;62.09
69770;SHT30;57282;52.514;13.458;2022-08-21T07:55:14;20.63;61.95
69770;SHT30;57282;52.514;13.458;2022-08-21T07:57:42;20.64;61.86
69770;SHT30;57282;52.514;13.458;2022-08-21T08:00:13;20.67;61.57
69770;SHT30;57282;52.514;13.458;2022-08-21T08:02:44;20.77;61.32
69770;SHT30;57282;52.514;13.458;2022-08-21T08:05:12;20.83;60.35
69770;SHT30;57282;52.514;13.458;2022-08-21T08:07:39;20.84;59.70
69770;SHT30;57282;52.514;13.458;2022-08-21T08:10:07;20.94;60.94
69770;SHT30;57282;52.514;13.458;2022-08-21T08:12:38;20.91;59.03
69770;SHT30;57282;52.514;13.458;2022-08-21T08:15:09;20.94;59.24
69770;SHT30;57282;52.514;13.458;2022-08-21T08:17:38;20.97;59.78
69770;SHT30;57282;52.514;13.458;2022-08-21T08:20:05;21.00;60.05
69770;SHT30;57282;52.514;13.458;2022-08-21T08:22:34;21.05;59.99
69770;SHT30;57282;52.514;13.458;2022-08-21T08:25:03;21.08;58.67
69770;SHT30;57282;52.514;13.458;2022-08-21T08:27:30;21.02;58.72
69770;SHT30;57282;52.514;13.458;2022-08-21T08:29:58;21.17;58.65
69770;SHT30;57282;52.514;13.458;2022-08-21T08:32:25;21.19;58.78
69770;SHT30;57282;52.514;13.458;2022-08-21T08:34:52;21.22;58.25
69770;SHT30;57282;52.514;13.458;2022-08-21T08:37:19;21.32;58.51
69770;SHT30;57282;52.514;13.458;2022-08-21T08:39:46;21.35;57.85
69770;SHT30;57282;52.514;13.458;2022-08-21T08:42:16;21.41;57.41
69770;SHT30;57282;52.514;13.458;2022-08-21T08:44:47;21.42;57.92
69770;SHT30;57282;52.514;13.458;2022-08-21T08:47:30;21.43;57.36
69770;SHT30;57282;52.514;13.458;2022-08-21T08:50:02;21.49;57.59
69770;SHT30;57282;52.514;13.458;2022-08-21T08:52:33;21.52;57.09
69770;SHT30;57282;52.514;13.458;2022-08-21T08:55:06;21.49;57.07
69770;SHT30;57282;52.514;13.458;2022-08-21T08:57:35;21.49;56.64
69770;SHT30;57282;52.514;13.458;2022-08-21T09:00:06;21.52;56.54
69770;SHT30;57282;52.514;13.458;2022-08-21T09:02:38;21.56;57.12
69770;SHT30;57282;52.514;13.458;2022-08-21T09:05:06;21.53;56.71
69770;SHT30;57282;52.514;13.458;2022-08-21T09:07:40;21.56;56.95
69770;SHT30;57282;52.514;13.458;2022-08-21T09:10:17;21.56;55.90
69770;SHT30;57282;52.514;13.458;2022-08-21T09:12:51;21.58;55.60
69770;SHT30;57282;52.514;13.458;2022-08-21T09:15:32;21.69;55.48
69770;SHT30;57282;52.514;13.458;2022-08-21T09:18:22;21.72;55.00
69770;SHT30;57282;52.514;13.458;2022-08-21T09:21:08;21.73;54.32
69770;SHT30;57282;52.514;13.458;2022-08-21T09:23:49;21.75;53.70
69770;SHT30;57282;52.514;13.458;2022-08-21T09:26:24;21.80;53.83
69770;SHT30;57282;52.514;13.458;2022-08-21T09:28:54;21.83;54.07
69770;SHT30;57282;52.514;13.458;2022-08-21T09:31:26;21.89;53.08
69770;SHT30;57282;52.514;13.458;2022-08-21T09:34:00;21.79;52.64
69770;SHT30;57282;52.514;13.458;2022-08-21T09:36:35;21.83;53.09
69770;SHT30;57282;52.514;13.458;2022-08-21T09:39:07;21.85;53.50
69770;SHT30;57282;52.514;13.458;2022-08-21T09:41:36;21.93;54.19
69770;SHT30;57282;52.514;13.458;2022-08-21T09:44:06;21.98;54.23
69770;SHT30;57282;52.514;13.458;2022-08-21T09:46:34;22.04;54.04
69770;SHT30;57282;52.514;13.458;2022-08-21T09:49:03;22.08;53.51
69770;SHT30;57282;52.514;13.458;2022-08-21T09:51:32;22.17;53.71
69770;SHT30;57282;52.514;13.458;2022-08-21T09:54:14;22.14;53.40
69770;SHT30;57282;52.514;13.458;2022-08-21T09:56:54;22.11;52.60
69770;SHT30;57282;52.514;13.458;2022-08-21T09:59:39;22.07;53.42
69770;SHT30;57282;52.514;13.458;2022-08-21T10:02:26;22.15;52.55
69770;SHT30;57282;52.514;13.458;2022-08-21T10:04:58;22.11;52.84
69770;SHT30;57282;52.514;13.458;2022-08-21T10:07:30;22.18;53.13
69770;SHT30;57282;52.514;13.458;2022-08-21T10:10:00;22.21;52.73
69770;SHT30;57282;52.514;13.458;2022-08-21T10:12:41;22.25;52.75
69770;SHT30;57282;52.514;13.458;2022-08-21T10:15:19;22.30;51.95
69770;SHT30;57282;52.514;13.458;2022-08-21T10:17:58;22.41;51.88
69770;SHT30;57282;52.514;13.458;2022-08-21T10:20:39;22.38;52.13
69770;SHT30;57282;52.514;13.458;2022-08-21T10:23:26;22.41;51.84
69770;SHT30;57282;52.514;13.458;2022-08-21T10:26:08;22.38;52.12
69770;SHT30;57282;52.514;13.458;2022-08-21T10:28:57;22.41;51.41
69770;SHT30;57282;52.514;13.458;2022-08-21T10:31:38;22.35;50.58
69770;SHT30;57282;52.514;13.458;2022-08-21T10:34:29;22.31;49.73
69770;SHT30;57282;52.514;13.458;2022-08-21T10:37:15;22.37;50.09
69770;SHT30;57282;52.514;13.458;2022-08-21T10:39:59;22.38;50.26
69770;SHT30;57282;52.514;13.458;2022-08-21T10:42:46;22.43;50.38
69770;SHT30;57282;52.514;13.458;2022-08-21T10:45:31;22.44;50.27
69770;SHT30;57282;52.514;13.458;2022-08-21T10:48:06;22.44;50.70
69770;SHT30;57282;52.514;13.458;2022-08-21T10:50:44;22.47;50.37
69770;SHT30;57282;52.514;13.458;2022-08-21T10:53:39;22.47;50.39
69770;SHT30;57282;52.514;13.458;2022-08-21T10:56:16;22.55;50.01
69770;SHT30;57282;52.514;13.458;2022-08-21T10:58:51;22.61;50.70
69770;SHT30;57282;52.514;13.458;2022-08-21T11:01:33;22.68;50.23
69770;SHT30;57282;52.514;13.458;2022-08-21T11:04:14;22.69;50.02
69770;SHT30;57282;52.514;13.458;2022-08-21T11:06:48;22.79;49.71
69770;SHT30;57282;52.514;13.458;2022-08-21T11:09:30;22.76;48.70
69770;SHT30;57282;52.514;13.458;2022-08-21T11:12:00;22.82;49.12
69770;SHT30;57282;52.514;13.458;2022-08-21T11:14:40;22.82;48.73
69770;SHT30;57282;52.514;13.458;2022-08-21T11:17:16;22.86;47.57
69770;SHT30;57282;52.514;13.458;2022-08-21T11:19:52;22.88;48.03
69770;SHT30;57282;52.514;13.458;2022-08-21T11:22:28;22.92;45.42
69770;SHT30;57282;52.514;13.458;2022-08-21T11:25:09;22.91;45.45
69770;SHT30;57282;52.514;13.458;2022-08-21T11:27:43;22.86;46.18
69770;SHT30;57282;52.514;13.458;2022-08-21T11:30:14;22.91;46.07
69770;SHT30;57282;52.514;13.458;2022-08-21T11:32:56;23.00;46.35
69770;SHT30;57282;52.514;13.458;2022-08-21T11:35:35;23.02;45.23
69770;SHT30;57282;52.514;13.458;2022-08-21T11:38:26;23.07;43.66
69770;SHT30;57282;52.514;13.458;2022-08-21T11:41:03;23.12;43.44
69770;SHT30;57282;52.514;13.458;2022-08-21T11:43:42;23.12;42.86
69770;SHT30;57282;52.514;13.458;2022-08-21T11:46:19;23.13;41.94
69770;SHT30;57282;52.514;13.458;2022-08-21T11:49:20;23.12;41.75
69770;SHT30;57282;52.514;13.458;2022-08-21T11:52:13;23.17;41.59
69770;SHT30;57282;52.514;13.458;2022-08-21T11:54:46;23.21;40.73
69770;SHT30;57282;52.514;13.458;2022-08-21T11:57:23;23.21;39.00
69770;SHT30;57282;52.514;13.458;2022-08-21T12:00:03;23.30;39.75
69770;SHT30;57282;52.514;13.458;2022-08-21T12:02:35;23.28;39.86
69770;SHT30;57282;52.514;13.458;2022-08-21T12:05:06;23.39;38.80
69770;SHT30;57282;52.514;13.458;2022-08-21T12:07:40;23.40;38.98
69770;SHT30;57282;52.514;13.458;2022-08-21T12:10:10;23.50;39.92
69770;SHT30;57282;52.514;13.458;2022-08-21T12:12:43;23.49;40.27
69770;SHT30;57282;52.514;13.458;2022-08-21T12:15:25;23.61;40.16
69770;SHT30;57282;52.514;13.458;2022-08-21T12:17:58;23.64;40.03
69770;SHT30;57282;52.514;13.458;2022-08-21T12:20:42;23.70;38.82
69770;SHT30;57282;52.514;13.458;2022-08-21T12:23:24;23.78;38.93
69770;SHT30;57282;52.514;13.458;2022-08-21T12:26:02;23.82;38.04
69770;SHT30;57282;52.514;13.458;2022-08-21T12:28:46;23.81;36.90
69770;SHT30;57282;52.514;13.458;2022-08-21T12:31:25;23.88;37.85
69770;SHT30;57282;52.514;13.458;2022-08-21T12:33:58;23.91;37.84
69770;SHT30;57282;52.514;13.458;2022-08-21T12:36:39;23.95;37.37
69770;SHT30;57282;52.514;13.458;2022-08-21T12:39:13;23.98;37.31
69770;SHT30;57282;52.514;13.458;2022-08-21T12:41:48;24.08;36.91
69770;SHT30;57282;52.514;13.458;2022-08-21T12:44:22;24.15;37.73
69770;SHT30;57282;52.514;13.458;2022-08-21T12:46:57;24.26;39.77
69770;SHT30;57282;52.514;13.458;2022-08-21T12:49:28;24.27;39.56
69770;SHT30;57282;52.514;13.458;2022-08-21T12:52:09;24.33;39.63
69770;SHT30;57282;52.514;13.458;2022-08-21T12:54:42;24.37;39.45
69770;SHT30;57282;52.514;13.458;2022-08-21T12:57:19;24.44;38.60
69770;SHT30;57282;52.514;13.458;2022-08-21T12:59:54;24.52;39.13
69770;SHT30;57282;52.514;13.458;2022-08-21T13:02:24;24.49;38.29
69770;SHT30;57282;52.514;13.458;2022-08-21T13:04:55;24.46;36.95
69770;SHT30;57282;52.514;13.458;2022-08-21T13:07:26;24.43;36.25
69770;SHT30;57282;52.514;13.458;2022-08-21T13:09:57;24.43;37.19
69770;SHT30;57282;52.514;13.458;2022-08-21T13:12:26;24.44;37.03
69770;SHT30;57282;52.514;13.458;2022-08-21T13:14:58;24.50;37.63
69770;SHT30;57282;52.514;13.458;2022-08-21T13:17:30;24.57;38.11
69770;SHT30;57282;52.514;13.458;2022-08-21T13:20:04;24.60;38.65
69770;SHT30;57282;52.514;13.458;2022-08-21T13:22:39;24.64;38.48
69770;SHT30;57282;52.514;13.458;2022-08-21T13:25:10;24.68;39.19
69770;SHT30;57282;52.514;13.458;2022-08-21T13:27:37;24.76;38.38
69770;SHT30;57282;52.514;13.458;2022-08-21T13:30:10;24.76;39.10
69770;SHT30;57282;52.514;13.458;2022-08-21T13:32:42;24.84;39.07
69770;SHT30;57282;52.514;13.458;2022-08-21T13:35:14;24.85;38.79
69770;SHT30;57282;52.514;13.458;2022-08-21T13:37:46;24.84;38.66
69770;SHT30;57282;52.514;13.458;2022-08-21T13:40:18;24.88;39.01
69770;SHT30;57282;52.514;13.458;2022-08-21T13:42:47;24.95;39.50
69770;SHT30;57282;52.514;13.458;2022-08-21T13:45:22;24.88;38.58
69770;SHT30;57282;52.514;13.458;2022-08-21T13:47:51;24.68;38.45
69770;SHT30;57282;52.514;13.458;2022-08-21T13:50:22;24.74;39.46
69770;SHT30;57282;52.514;13.458;2022-08-21T13:52:57;24.67;39.65
69770;SHT30;57282;52.514;13.458;2022-08-21T13:55:34;24.74;39.16
69770;SHT30;57282;52.514;13.458;2022-08-21T13:58:04;24.73;39.39
69770;SHT30;57282;52.514;13.458;2022-08-21T14:00:34;24.71;39.63
69770;SHT30;57282;52.514;13.458;2022-08-21T14:03:10;24.66;39.37
69770;SHT30;57282;52.514;13.458;2022-08-21T14:05:45;24.71;40.13
69770;SHT30;57282;52.514;13.458;2022-08-21T14:08:14;24.70;41.16
69770;SHT30;57282;52.514;13.458;2022-08-21T14:10:58;24.64;41.08
69770;SHT30;57282;52.514;13.458;2022-08-21T14:13:32;24.64;41.02
69770;SHT30;57282;52.514;13.458;2022-08-21T14:16:11;24.64;41.18
69770;SHT30;57282;52.514;13.458;2022-08-21T14:18:50;24.63;41.07
69770;SHT30;57282;52.514;13.458;2022-08-21T14:21:30;24.64;41.93
69770;SHT30;57282;52.514;13.458;2022-08-21T14:24:02;24.73;42.64
69770;SHT30;57282;52.514;13.458;2022-08-21T14:26:33;24.73;42.42
69770;SHT30;57282;52.514;13.458;2022-08-21T14:29:07;24.74;42.57
69770;SHT30;57282;52.514;13.458;2022-08-21T14:31:36;24.83;42.67
69770;SHT30;57282;52.514;13.458;2022-08-21T14:34:03;24.74;42.77
69770;SHT30;57282;52.514;13.458;2022-08-21T14:36:30;24.64;42.30
69770;SHT30;57282;52.514;13.458;2022-08-21T14:38:57;24.64;42.76
69770;SHT30;57282;52.514;13.458;2022-08-21T14:41:25;24.66;42.38
69770;SHT30;57282;52.514;13.458;2022-08-21T14:43:55;24.68;42.68
69770;SHT30;57282;52.514;13.458;2022-08-21T14:46:26;24.64;42.74
69770;SHT30;57282;52.514;13.458;2022-08-21T14:48:56;24.63;42.61
69770;SHT30;57282;52.514;13.458;2022-08-21T14:51:22;24.61;42.50
69770;SHT30;57282;52.514;13.458;2022-08-21T14:53:49;24.55;42.73
69770;SHT30;57282;52.514;13.458;2022-08-21T14:56:17;24.52;43.31
69770;SHT30;57282;52.514;13.458;2022-08-21T14:58:47;24.56;43.44
69770;SHT30;57282;52.514;13.458;2022-08-21T15:01:17;24.53;43.75
69770;SHT30;57282;52.514;13.458;2022-08-21T15:03:46;24.50;43.21
69770;SHT30;57282;52.514;13.458;2022-08-21T15:06:15;24.52;43.42
69770;SHT30;57282;52.514;13.458;2022-08-21T15:08:43;24.52;43.29
69770;SHT30;57282;52.514;13.458;2022-08-21T15:11:12;24.50;43.99
69770;SHT30;57282;52.514;13.458;2022-08-21T15:13:43;24.53;44.71
69770;SHT30;57282;52.514;13.458;2022-08-21T15:16:11;24.53;44.29
69770;SHT30;57282;52.514;13.458;2022-08-21T15:18:38;24.47;43.49
69770;SHT30;57282;52.514;13.458;2022-08-21T15:21:07;24.52;43.63
69770;SHT30;57282;52.514;13.458;2022-08-21T15:23:35;24.46;43.66
69770;SHT30;57282;52.514;13.458;2022-08-21T15:26:02;24.41;43.38
69770;SHT30;57282;52.514;13.458;2022-08-21T15:28:29;24.43;43.82
69770;SHT30;57282;52.514;13.458;2022-08-21T15:30:55;24.43;43.79
69770;SHT30;57282;52.514;13.458;2022-08-21T15:33:23;24.37;44.23
69770;SHT30;57282;52.514;13.458;2022-08-21T15:35:49;24.33;44.13
69770;SHT30;57282;52.514;13.458;2022-08-21T15:38:16;24.35;44.19